createdAt,value
2022-08-04T00:02:26.909Z,19.64
2022-08-04T00:06:37.142Z,19.51
2022-08-04T00:10:40.370Z,19.41
2022-08-04T00:14:48.358Z,19.38
2022-08-04T00:19:03.599Z,19.32
2022-08-04T00:23:06.434Z,19.31
2022-08-04T00:27:08.909Z,19.26
2022-08-04T00:31:11.637Z,19.19
2022-08-04T00:35:14.401Z,19.15
2022-08-04T00:39:17.104Z,19.08
2022-08-04T00:43:25.837Z,19.00
2022-08-04T00:47:46.214Z,18.92
2022-08-04T00:52:32.253Z,18.82
2022-08-04T00:56:49.901Z,18.75
2022-08-04T01:01:19.505Z,18.70
2022-08-04T01:05:40.706Z,18.60
2022-08-04T01:10:02.657Z,18.49
2022-08-04T01:14:13.282Z,18.45
2022-08-04T01:18:35.846Z,18.42
2022-08-04T01:23:23.722Z,18.37
2022-08-04T01:27:39.933Z,18.40
2022-08-04T01:31:56.090Z,18.39
2022-08-04T01:36:04.662Z,18.25
2022-08-04T01:40:07.876Z,18.15
2022-08-04T01:44:11.167Z,18.13
2022-08-04T01:48:14.421Z,18.07
2022-08-04T01:52:17.857Z,17.98
2022-08-04T01:56:20.698Z,17.98
2022-08-04T02:00:27.368Z,18.00
2022-08-04T02:04:29.351Z,17.97
2022-08-04T02:08:30.834Z,17.92
2022-08-04T02:12:56.293Z,17.83
2022-08-04T02:16:57.930Z,17.80
2022-08-04T02:21:03.729Z,17.81
2022-08-04T02:25:08.743Z,17.74
2022-08-04T02:29:20.467Z,17.71
2022-08-04T02:33:27.085Z,17.73
2022-08-04T02:37:32.104Z,17.66
2022-08-04T02:41:34.863Z,17.53
2022-08-04T02:45:38.129Z,17.50
2022-08-04T02:49:42.280Z,17.48
2022-08-04T02:53:44.867Z,17.40
2022-08-04T02:57:47.753Z,17.36
2022-08-04T03:01:57.374Z,17.27
2022-08-04T03:06:41.225Z,17.20
2022-08-04T03:11:04.294Z,17.14
2022-08-04T03:15:43.618Z,17.14
2022-08-04T03:20:07.234Z,17.13
2022-08-04T03:24:30.549Z,17.08
2022-08-04T03:28:53.314Z,17.01
2022-08-04T03:33:20.295Z,17.01
2022-08-04T03:37:38.968Z,16.95
2022-08-04T03:42:03.923Z,16.87
2022-08-04T03:46:05.971Z,16.82
2022-08-04T03:50:25.637Z,16.80
2022-08-04T03:54:44.539Z,16.79
2022-08-04T03:59:16.614Z,16.79
2022-08-04T04:03:36.759Z,16.78
2022-08-04T04:08:01.679Z,16.73
2022-08-04T04:12:24.852Z,16.70
2022-08-04T04:16:41.921Z,16.72
2022-08-04T04:20:49.604Z,16.69
2022-08-04T04:25:24.961Z,16.67
2022-08-04T04:29:33.465Z,16.69
2022-08-04T04:33:48.905Z,16.71
2022-08-04T04:38:05.623Z,16.76
2022-08-04T04:42:45.633Z,16.78
2022-08-04T04:47:09.094Z,16.82
2022-08-04T04:51:16.717Z,16.86
2022-08-04T04:55:26.726Z,16.98
2022-08-04T04:59:34.721Z,17.17
2022-08-04T05:04:14.754Z,17.40
2022-08-04T05:08:43.239Z,17.71
2022-08-04T05:14:34.997Z,18.04
2022-08-04T05:17:38.755Z,18.37
2022-08-04T05:21:47.349Z,18.57
2022-08-04T05:26:10.173Z,18.69
2022-08-04T05:30:12.518Z,18.91
2022-08-04T05:34:24.049Z,19.06
2022-08-04T05:38:29.749Z,19.25
2022-08-04T05:42:38.656Z,19.84
2022-08-04T05:46:40.930Z,20.46
2022-08-04T05:50:43.577Z,21.07
2022-08-04T05:54:46.234Z,21.40
2022-08-04T05:58:48.237Z,21.66
2022-08-04T06:02:52.321Z,22.02
2022-08-04T06:06:54.521Z,22.64
2022-08-04T06:10:58.887Z,23.19
2022-08-04T06:15:01.681Z,23.70
2022-08-04T06:20:01.260Z,23.92
2022-08-04T06:23:31.653Z,24.27
2022-08-04T06:27:33.799Z,24.60
2022-08-04T06:32:29.845Z,24.87
2022-08-04T06:36:19.229Z,25.46
2022-08-04T06:40:31.091Z,25.87
2022-08-04T06:44:34.767Z,26.49
2022-08-04T06:48:36.789Z,26.81
2022-08-04T06:52:39.263Z,26.97
2022-08-04T06:56:44.407Z,27.30
2022-08-04T07:00:47.254Z,27.71
2022-08-04T07:04:49.173Z,28.02
2022-08-04T07:08:51.669Z,28.00
2022-08-04T07:12:54.252Z,28.16
2022-08-04T07:16:56.838Z,28.21
2022-08-04T07:20:58.649Z,28.39
2022-08-04T07:25:01.232Z,28.78
2022-08-04T07:29:02.924Z,28.73
2022-08-04T07:33:06.681Z,28.73
2022-08-04T07:37:08.374Z,28.65
2022-08-04T07:45:32.082Z,28.83
2022-08-04T07:49:55.065Z,29.03
2022-08-04T07:53:57.681Z,29.26
2022-08-04T07:57:59.178Z,29.36
2022-08-04T08:02:01.554Z,29.67
2022-08-04T08:06:17.348Z,29.96
2022-08-04T08:10:25.943Z,30.47
2022-08-04T08:14:28.366Z,30.46
2022-08-04T08:18:30.841Z,30.46
2022-08-04T08:22:32.613Z,30.55
2022-08-04T08:26:35.421Z,30.79
2022-08-04T08:30:37.870Z,31.15
2022-08-04T08:34:41.319Z,31.67
2022-08-04T08:38:53.208Z,31.83
2022-08-04T08:44:04.977Z,32.38
2022-08-04T08:48:08.564Z,32.59
2022-08-04T08:52:56.254Z,32.69
2022-08-04T08:57:16.896Z,33.00
2022-08-04T09:02:02.169Z,33.23
2022-08-04T09:06:09.753Z,33.69
2022-08-04T09:10:33.661Z,34.02
2022-08-04T09:14:44.019Z,34.29
2022-08-04T09:19:04.601Z,34.33
2022-08-04T09:23:16.145Z,34.66
2022-08-04T09:27:28.499Z,34.78
2022-08-04T09:31:49.086Z,34.96
2022-08-04T09:36:27.622Z,35.00
2022-08-04T09:40:53.845Z,35.20
2022-08-04T09:45:26.790Z,35.53
2022-08-04T09:49:47.105Z,35.68
2022-08-04T09:54:06.881Z,35.85
2022-08-04T09:58:22.826Z,36.08
2022-08-04T10:02:26.697Z,36.24
2022-08-04T10:06:31.662Z,36.03
2022-08-04T10:10:55.180Z,36.06
2022-08-04T10:15:26.557Z,36.32
2022-08-04T10:19:31.670Z,36.30
2022-08-04T10:24:11.492Z,36.40
2022-08-04T10:28:17.192Z,36.50
2022-08-04T10:32:25.163Z,36.76
2022-08-04T10:36:30.115Z,36.79
2022-08-04T10:40:45.437Z,36.95
2022-08-04T10:45:20.170Z,36.99
2022-08-04T10:49:36.798Z,37.04
2022-08-04T10:53:40.494Z,37.22
2022-08-04T10:57:47.602Z,37.39
2022-08-04T11:02:02.791Z,37.59
2022-08-04T11:06:05.469Z,37.66
2022-08-04T11:10:09.077Z,37.63
2022-08-04T11:14:12.623Z,37.49
2022-08-04T11:18:23.337Z,37.41
2022-08-04T11:22:29.277Z,37.63
2022-08-04T11:26:51.545Z,37.54
2022-08-04T11:31:07.595Z,37.81
2022-08-04T11:35:15.787Z,38.11
2022-08-04T11:39:35.492Z,38.14
2022-08-04T11:44:00.986Z,38.07
2022-08-04T11:48:11.372Z,38.23
2022-08-04T11:52:14.701Z,38.28
2022-08-04T11:56:36.006Z,38.30
2022-08-04T12:00:51.585Z,38.33
2022-08-04T12:04:58.889Z,38.50
2022-08-04T12:09:27.600Z,38.34
2022-08-04T12:13:44.119Z,38.43
2022-08-04T12:18:05.913Z,38.47
2022-08-04T12:22:15.941Z,38.31
2022-08-04T12:26:28.398Z,38.45
2022-08-04T12:30:59.581Z,38.51
2022-08-04T12:35:14.754Z,38.58
2022-08-04T12:39:19.013Z,38.76
2022-08-04T12:43:34.918Z,38.95
2022-08-04T12:47:38.069Z,38.98
2022-08-04T12:52:08.601Z,38.52
2022-08-04T12:56:05.838Z,38.19
2022-08-04T13:00:09.548Z,37.72
2022-08-04T13:04:20.114Z,37.57
2022-08-04T13:08:23.052Z,37.40
2022-08-04T13:12:32.509Z,37.56
2022-08-04T13:16:34.936Z,37.63
2022-08-04T13:20:38.165Z,37.79
2022-08-04T13:24:56.788Z,37.71
2022-08-04T13:29:16.071Z,37.40
2022-08-04T13:33:20.087Z,37.17
2022-08-04T13:37:30.836Z,37.19
2022-08-04T13:41:34.105Z,37.31
2022-08-04T13:45:38.824Z,37.64
2022-08-04T13:49:54.547Z,37.47
2022-08-04T13:54:03.032Z,37.15
2022-08-04T13:58:09.762Z,36.96
2022-08-04T14:02:37.213Z,36.74
2022-08-04T14:06:53.779Z,36.69
2022-08-04T14:10:56.966Z,36.70
2022-08-04T14:14:58.415Z,36.67
2022-08-04T14:19:01.922Z,36.64
2022-08-04T14:23:04.057Z,36.58
2022-08-04T14:27:05.521Z,36.42
2022-08-04T14:31:16.033Z,36.38
2022-08-04T14:35:17.500Z,36.28
2022-08-04T14:39:37.025Z,36.25
2022-08-04T14:43:51.582Z,36.27
2022-08-04T14:47:53.440Z,36.23
2022-08-04T14:51:59.433Z,36.41
2022-08-04T14:56:01.034Z,36.76
2022-08-04T15:00:06.025Z,37.26
2022-08-04T15:04:11.119Z,37.50
2022-08-04T15:08:17.968Z,37.86
2022-08-04T15:12:20.278Z,38.15
2022-08-04T15:16:24.350Z,37.89
2022-08-04T15:20:25.924Z,37.59
2022-08-04T15:24:27.491Z,37.26
2022-08-04T15:28:31.159Z,36.90
2022-08-04T15:32:51.729Z,36.85
2022-08-04T15:36:56.275Z,37.14
2022-08-04T15:41:04.891Z,37.31
2022-08-04T15:45:23.725Z,37.28
2022-08-04T15:49:46.239Z,37.49
2022-08-04T15:54:16.829Z,37.45
2022-08-04T15:58:25.971Z,37.37
2022-08-04T16:02:33.851Z,37.55
2022-08-04T16:06:36.546Z,37.44
2022-08-04T16:10:44.370Z,37.24
2022-08-04T16:14:45.994Z,36.93
2022-08-04T16:18:47.632Z,36.57
2022-08-04T16:22:51.652Z,36.22
2022-08-04T16:27:08.186Z,35.93
2022-08-04T16:31:11.808Z,35.77
2022-08-04T16:35:38.017Z,35.63
2022-08-04T16:39:49.949Z,35.52
2022-08-04T16:44:21.699Z,35.39
2022-08-04T16:48:35.845Z,35.29
2022-08-04T16:52:49.240Z,35.12
2022-08-04T16:56:51.210Z,35.02
2022-08-04T17:00:53.255Z,34.88
2022-08-04T17:05:01.046Z,34.61
2022-08-04T17:09:11.955Z,34.52
2022-08-04T17:14:02.503Z,34.50
2022-08-04T17:18:14.185Z,34.36
2022-08-04T17:22:15.950Z,34.29
2022-08-04T17:26:22.056Z,34.14
2022-08-04T17:30:27.784Z,33.99
2022-08-04T17:34:29.393Z,33.84
2022-08-04T17:38:40.483Z,33.78
2022-08-04T17:42:45.789Z,33.77
2022-08-04T17:46:48.794Z,33.78
2022-08-04T17:50:50.517Z,33.78
2022-08-04T17:54:59.412Z,33.78
2022-08-04T17:59:56.431Z,33.73
2022-08-04T18:03:39.188Z,33.61
2022-08-04T18:08:38.623Z,33.55
2022-08-04T18:12:06.606Z,33.43
2022-08-04T18:16:22.643Z,33.19
2022-08-04T18:20:27.694Z,32.97
2022-08-04T18:24:35.873Z,32.68
2022-08-04T18:28:52.317Z,32.32
2022-08-04T18:33:10.614Z,31.92
2022-08-04T18:38:05.946Z,31.51
2022-08-04T18:42:01.933Z,31.11
2022-08-04T18:46:00.818Z,30.72
2022-08-04T18:50:59.575Z,30.42
2022-08-04T18:54:25.544Z,30.15
2022-08-04T18:58:28.045Z,29.87
2022-08-04T19:02:29.742Z,29.62
2022-08-04T19:06:33.275Z,29.35
2022-08-04T19:10:34.966Z,29.17
2022-08-04T19:14:36.495Z,29.09
2022-08-04T19:18:38.878Z,29.06
2022-08-04T19:24:27.807Z,29.16
2022-08-04T19:27:06.773Z,29.10
2022-08-04T19:31:10.388Z,28.96
2022-08-04T19:35:11.770Z,28.82
2022-08-04T19:39:13.962Z,28.62
2022-08-04T19:43:17.743Z,28.40
2022-08-04T19:48:11.567Z,28.25
2022-08-04T19:51:44.042Z,28.06
2022-08-04T20:00:07.526Z,27.74
2022-08-04T20:04:11.645Z,27.56
2022-08-04T20:08:14.951Z,27.34
2022-08-04T20:12:16.817Z,27.21
2022-08-04T20:16:28.429Z,27.01
2022-08-04T20:20:31.110Z,26.89
2022-08-04T20:24:41.516Z,26.71
2022-08-04T20:28:52.542Z,26.57
2022-08-04T20:32:56.282Z,26.44
2022-08-04T20:36:57.996Z,26.32
2022-08-04T20:41:00.512Z,26.23
2022-08-04T20:45:03.558Z,26.14
2022-08-04T20:49:06.433Z,26.06
2022-08-04T20:53:17.060Z,25.92
2022-08-04T20:57:18.943Z,25.73
2022-08-04T21:01:40.317Z,25.56
2022-08-04T21:05:46.925Z,25.38
2022-08-04T21:09:52.114Z,25.28
2022-08-04T21:13:53.523Z,25.17
2022-08-04T21:18:04.233Z,25.15
2022-08-04T21:22:10.272Z,25.19
2022-08-04T21:26:22.027Z,25.39
2022-08-04T21:30:27.298Z,25.73
2022-08-04T21:34:38.133Z,26.03
2022-08-04T21:38:41.935Z,26.28
2022-08-04T21:42:53.644Z,26.48
2022-08-04T21:46:55.282Z,26.59
2022-08-04T21:50:57.311Z,26.71
2022-08-04T21:54:59.004Z,26.78
2022-08-04T21:59:07.168Z,26.86
2022-08-04T22:03:51.640Z,26.89
2022-08-04T22:07:50.163Z,26.90
2022-08-04T22:11:52.829Z,26.94
2022-08-04T22:16:04.384Z,26.98
2022-08-04T22:20:23.890Z,26.99
2022-08-04T22:24:30.019Z,27.01
2022-08-04T22:28:31.518Z,26.99
2022-08-04T22:32:34.175Z,27.00
2022-08-04T22:36:35.806Z,26.96
2022-08-04T22:40:38.769Z,26.88
2022-08-04T22:44:40.210Z,26.76
2022-08-04T22:48:43.429Z,26.68
2022-08-04T22:52:55.611Z,26.58
2022-08-04T22:56:57.683Z,26.47
2022-08-04T23:01:00.178Z,26.42
2022-08-04T23:05:01.820Z,26.40
2022-08-04T23:09:03.728Z,26.36
2022-08-04T23:13:06.309Z,26.33
2022-08-04T23:17:08.263Z,26.31
2022-08-04T23:21:11.131Z,26.25
2022-08-04T23:25:15.463Z,26.22
2022-08-04T23:29:18.001Z,26.17
2022-08-04T23:33:19.633Z,26.14
2022-08-04T23:37:23.269Z,26.06
2022-08-04T23:41:24.938Z,25.94
2022-08-04T23:46:07.071Z,25.82
2022-08-04T23:50:09.625Z,25.64
2022-08-04T23:54:11.469Z,25.50
2022-08-04T23:58:18.762Z,25.35
